Box Canyon, Idaho
Current Conditions -  °F | °C
As of 7:55 AM on Wednesday 22 Oct 2014 (Local Time) from KWYS Reporting Station
Overcast Overcast  
Wind Chill: 24°   Ceiling: 1000
Heat Index: 32°   Visibility: 10mi
Dew Point: 32°   Wind: 10mph
Humidity: 100%   Direction: 220°SW
Pressure: 30.16"   Gusts: NA
Location:  44.4566°N, 111.359°W
Report Text: KWYS 221355Z AUTO 22009KT 10SM OVC010 00/00 A3016 RMK AO2
Loading
Personal Weather Stations






























Interactive Weather Map
Tropical Storm Tracking
New forecast layout! Learn more

10-Day Weather Forecast

Advertisements
Track Severe Weather on mobile